sensor_id;sensor_type;location;lat;lon;timestamp;pressure;altitude;pressure_sealevel;temperature;humidity
86115;BME280;76768;49.464;10.882;2024-02-28T00:02:09;97765.84;;;4.16;82.35
86115;BME280;76768;49.464;10.882;2024-02-28T00:04:34;97767.41;;;4.10;81.78
86115;BME280;76768;49.464;10.882;2024-02-28T00:06:59;97769.75;;;4.11;82.37
86115;BME280;76768;49.464;10.882;2024-02-28T00:09:25;97766.63;;;4.09;81.80
86115;BME280;76768;49.464;10.882;2024-02-28T00:11:50;97768.19;;;4.14;82.11
86115;BME280;76768;49.464;10.882;2024-02-28T00:14:15;97768.19;;;4.10;82.60
86115;BME280;76768;49.464;10.882;2024-02-28T00:16:42;97766.63;;;4.09;81.46
86115;BME280;76768;49.464;10.882;2024-02-28T00:19:07;97766.59;;;4.02;82.30
86115;BME280;76768;49.464;10.882;2024-02-28T00:21:33;97753.97;;;3.94;82.12
86115;BME280;76768;49.464;10.882;2024-02-28T00:23:58;97760.25;;;3.91;82.53
86115;BME280;76768;49.464;10.882;2024-02-28T00:26:23;97769.72;;;3.97;81.67
86115;BME280;76768;49.464;10.882;2024-02-28T00:28:49;97767.34;;;3.99;81.53
86115;BME280;76768;49.464;10.882;2024-02-28T00:31:14;97759.50;;;4.01;82.22
86115;BME280;76768;49.464;10.882;2024-02-28T00:33:39;97757.94;;;4.00;82.32
86115;BME280;76768;49.464;10.882;2024-02-28T00:36:04;97762.66;;;4.03;81.89
86115;BME280;76768;49.464;10.882;2024-02-28T00:38:30;97761.09;;;4.06;81.85
86115;BME280;76768;49.464;10.882;2024-02-28T00:40:55;97765.00;;;4.01;82.43
86115;BME280;76768;49.464;10.882;2024-02-28T00:43:20;97761.09;;;4.02;81.74
86115;BME280;76768;49.464;10.882;2024-02-28T00:45:46;97770.50;;;3.97;82.02
86115;BME280;76768;49.464;10.882;2024-02-28T00:48:11;97759.91;;;4.03;81.38
86115;BME280;76768;49.464;10.882;2024-02-28T00:50:36;97754.81;;;4.05;80.93
86115;BME280;76768;49.464;10.882;2024-02-28T00:53:02;97764.25;;;4.04;81.90
86115;BME280;76768;49.464;10.882;2024-02-28T00:55:28;97772.09;;;4.02;82.74
86115;BME280;76768;49.464;10.882;2024-02-28T00:57:53;97765.03;;;4.05;81.70
86115;BME280;76768;49.464;10.882;2024-02-28T01:00:18;97756.72;;;3.94;81.90
86115;BME280;76768;49.464;10.882;2024-02-28T01:02:44;97750.03;;;3.91;81.33
86115;BME280;76768;49.464;10.882;2024-02-28T01:05:09;97764.97;;;3.94;81.92
86115;BME280;76768;49.464;10.882;2024-02-28T01:07:34;97755.16;;;3.93;82.35
86115;BME280;76768;49.464;10.882;2024-02-28T01:10:00;97754.38;;;3.89;81.88
86115;BME280;76768;49.464;10.882;2024-02-28T01:12:25;97746.50;;;3.87;81.81
86115;BME280;76768;49.464;10.882;2024-02-28T01:14:51;97740.59;;;3.85;81.58
86115;BME280;76768;49.464;10.882;2024-02-28T01:17:16;97754.75;;;3.91;82.15
86115;BME280;76768;49.464;10.882;2024-02-28T01:19:41;97764.22;;;3.97;81.65
86115;BME280;76768;49.464;10.882;2024-02-28T01:22:07;97762.66;;;3.96;81.97
86115;BME280;76768;49.464;10.882;2024-02-28T01:24:33;97761.84;;;3.92;82.15
86115;BME280;76768;49.464;10.882;2024-02-28T01:26:59;97766.53;;;3.88;81.70
86115;BME280;76768;49.464;10.882;2024-02-28T01:29:25;97776.38;;;3.92;82.14
86115;BME280;76768;49.464;10.882;2024-02-28T01:32:11;97772.81;;;3.85;82.42
86115;BME280;76768;49.464;10.882;2024-02-28T01:34:37;97775.19;;;3.90;81.88
86115;BME280;76768;49.464;10.882;2024-02-28T01:37:02;97773.63;;;3.92;81.99
86115;BME280;76768;49.464;10.882;2024-02-28T01:39:27;97766.53;;;3.88;81.37
86115;BME280;76768;49.464;10.882;2024-02-28T01:41:54;97772.81;;;3.85;81.81
86115;BME280;76768;49.464;10.882;2024-02-28T01:44:20;97757.44;;;3.77;81.29
86115;BME280;76768;49.464;10.882;2024-02-28T01:46:45;97768.81;;;3.75;81.93
86115;BME280;76768;49.464;10.882;2024-02-28T01:49:11;97771.19;;;3.73;82.43
86115;BME280;76768;49.464;10.882;2024-02-28T01:51:37;97764.13;;;3.79;82.02
86115;BME280;76768;49.464;10.882;2024-02-28T01:54:02;97763.34;;;3.79;82.43
86115;BME280;76768;49.464;10.882;2024-02-28T01:56:28;97772.00;;;3.81;82.73
86115;BME280;76768;49.464;10.882;2024-02-28T01:58:55;97760.19;;;3.77;82.53
86115;BME280;76768;49.464;10.882;2024-02-28T02:01:21;97773.97;;;3.84;82.01
86115;BME280;76768;49.464;10.882;2024-02-28T02:03:47;97762.56;;;3.78;81.71
86115;BME280;76768;49.464;10.882;2024-02-28T02:06:12;97776.72;;;3.84;82.00
86115;BME280;76768;49.464;10.882;2024-02-28T02:08:38;97779.81;;;3.79;83.01
86115;BME280;76768;49.464;10.882;2024-02-28T02:11:04;97786.53;;;3.85;82.48
86115;BME280;76768;49.464;10.882;2024-02-28T02:13:29;97779.88;;;3.86;82.01
86115;BME280;76768;49.464;10.882;2024-02-28T02:15:55;97779.06;;;3.82;81.88
86115;BME280;76768;49.464;10.882;2024-02-28T02:18:20;97788.50;;;3.84;81.91
86115;BME280;76768;49.464;10.882;2024-02-28T02:20:49;97791.63;;;3.83;81.83
86115;BME280;76768;49.464;10.882;2024-02-28T02:23:15;97791.66;;;3.90;81.62
86115;BME280;76768;49.464;10.882;2024-02-28T02:25:45;97805.84;;;3.92;81.30
86115;BME280;76768;49.464;10.882;2024-02-28T02:28:10;97804.22;;;3.91;81.67
86115;BME280;76768;49.464;10.882;2024-02-28T02:30:35;97799.47;;;3.77;82.84
86115;BME280;76768;49.464;10.882;2024-02-28T02:33:01;97812.03;;;3.82;82.71
86115;BME280;76768;49.464;10.882;2024-02-28T02:35:26;97820.72;;;3.84;82.68
86115;BME280;76768;49.464;10.882;2024-02-28T02:37:51;97817.56;;;3.85;81.53
86115;BME280;76768;49.464;10.882;2024-02-28T02:40:16;97833.28;;;3.85;81.84
86115;BME280;76768;49.464;10.882;2024-02-28T02:42:42;97837.16;;;3.77;82.26
86115;BME280;76768;49.464;10.882;2024-02-28T02:45:07;97846.59;;;3.83;82.32
86115;BME280;76768;49.464;10.882;2024-02-28T02:47:33;97848.97;;;3.84;81.71
86115;BME280;76768;49.464;10.882;2024-02-28T02:49:58;97834.78;;;3.79;82.29
86115;BME280;76768;49.464;10.882;2024-02-28T02:52:23;97849.72;;;3.78;81.98
86115;BME280;76768;49.464;10.882;2024-02-28T02:54:48;97844.97;;;3.75;81.75
86115;BME280;76768;49.464;10.882;2024-02-28T02:57:14;97858.38;;;3.83;81.22
86115;BME280;76768;49.464;10.882;2024-02-28T02:59:39;97857.53;;;3.72;82.05
86115;BME280;76768;49.464;10.882;2024-02-28T03:02:04;97866.22;;;3.78;81.58
86115;BME280;76768;49.464;10.882;2024-02-28T03:04:30;97872.09;;;3.76;82.92
86115;BME280;76768;49.464;10.882;2024-02-28T03:06:55;97870.13;;;3.77;82.61
86115;BME280;76768;49.464;10.882;2024-02-28T03:09:20;97875.25;;;3.82;81.46
86115;BME280;76768;49.464;10.882;2024-02-28T03:11:45;97871.72;;;3.81;82.23
86115;BME280;76768;49.464;10.882;2024-02-28T03:14:11;97872.16;;;3.87;82.02
86115;BME280;76768;49.464;10.882;2024-02-28T03:16:41;97878.06;;;3.89;81.54
86115;BME280;76768;49.464;10.882;2024-02-28T03:19:06;97879.66;;;3.93;81.35
86115;BME280;76768;49.464;10.882;2024-02-28T03:21:31;97874.88;;;3.83;81.87
86115;BME280;76768;49.464;10.882;2024-02-28T03:23:57;97876.50;;;3.88;81.79
86115;BME280;76768;49.464;10.882;2024-02-28T03:26:22;97883.94;;;3.84;82.09
86115;BME280;76768;49.464;10.882;2024-02-28T03:28:48;97878.81;;;3.86;81.85
86115;BME280;76768;49.464;10.882;2024-02-28T03:31:13;97886.69;;;3.91;81.40
86115;BME280;76768;49.464;10.882;2024-02-28T03:33:38;97874.09;;;3.83;81.46
86115;BME280;76768;49.464;10.882;2024-02-28T03:36:04;97895.38;;;3.93;81.89
86115;BME280;76768;49.464;10.882;2024-02-28T03:38:29;97896.94;;;3.94;81.47
86115;BME280;76768;49.464;10.882;2024-02-28T03:40:54;97893.00;;;3.88;81.35
86115;BME280;76768;49.464;10.882;2024-02-28T03:43:20;97902.81;;;3.89;81.65
86115;BME280;76768;49.464;10.882;2024-02-28T03:45:45;97902.38;;;3.87;81.63
86115;BME280;76768;49.464;10.882;2024-02-28T03:48:10;97911.06;;;3.89;81.60
86115;BME280;76768;49.464;10.882;2024-02-28T03:50:36;97914.97;;;3.88;82.02
86115;BME280;76768;49.464;10.882;2024-02-28T03:53:01;97901.59;;;3.86;81.62
86115;BME280;76768;49.464;10.882;2024-02-28T03:55:26;97920.94;;;4.01;81.29
86115;BME280;76768;49.464;10.882;2024-02-28T03:57:51;97922.13;;;4.03;81.60
86115;BME280;76768;49.464;10.882;2024-02-28T04:00:17;97917.41;;;4.00;81.74
86115;BME280;76768;49.464;10.882;2024-02-28T04:02:42;97928.44;;;4.07;81.00
86115;BME280;76768;49.464;10.882;2024-02-28T04:05:08;97930.41;;;4.07;81.32
86115;BME280;76768;49.464;10.882;2024-02-28T04:07:33;97935.53;;;4.08;80.14
86115;BME280;76768;49.464;10.882;2024-02-28T04:09:59;97944.19;;;4.10;80.87
86115;BME280;76768;49.464;10.882;2024-02-28T04:12:24;97939.47;;;4.14;80.31
86115;BME280;76768;49.464;10.882;2024-02-28T04:14:49;97933.97;;;4.14;80.53
86115;BME280;76768;49.464;10.882;2024-02-28T04:17:14;97915.09;;;4.06;80.25
86115;BME280;76768;49.464;10.882;2024-02-28T04:19:40;97927.69;;;4.14;80.35
86115;BME280;76768;49.464;10.882;2024-02-28T04:22:05;97935.56;;;4.15;80.11
86115;BME280;76768;49.464;10.882;2024-02-28T04:24:31;97948.16;;;4.16;80.45
86115;BME280;76768;49.464;10.882;2024-02-28T04:26:57;97948.16;;;4.16;79.70
86115;BME280;76768;49.464;10.882;2024-02-28T04:29:24;97952.03;;;4.12;79.96
86115;BME280;76768;49.464;10.882;2024-02-28T04:31:50;97948.91;;;4.13;79.95
86115;BME280;76768;49.464;10.882;2024-02-28T04:34:15;97941.03;;;4.08;80.95
86115;BME280;76768;49.464;10.882;2024-02-28T04:36:40;97941.69;;;3.91;80.85
86115;BME280;76768;49.464;10.882;2024-02-28T04:39:05;97938.53;;;3.89;81.39
86115;BME280;76768;49.464;10.882;2024-02-28T04:41:32;97945.63;;;3.90;81.38
86115;BME280;76768;49.464;10.882;2024-02-28T04:43:59;97950.72;;;3.88;81.82
86115;BME280;76768;49.464;10.882;2024-02-28T04:46:24;97936.16;;;3.84;81.23
86115;BME280;76768;49.464;10.882;2024-02-28T04:48:50;97941.22;;;3.82;81.39
86115;BME280;76768;49.464;10.882;2024-02-28T04:51:16;97949.47;;;3.82;82.04
86115;BME280;76768;49.464;10.882;2024-02-28T04:53:42;97945.56;;;3.83;82.37
86115;BME280;76768;49.464;10.882;2024-02-28T04:56:08;97941.66;;;3.84;81.90
86115;BME280;76768;49.464;10.882;2024-02-28T04:58:33;97958.16;;;3.84;81.80
86115;BME280;76768;49.464;10.882;2024-02-28T05:00:58;97945.56;;;3.83;82.32
86115;BME280;76768;49.464;10.882;2024-02-28T05:03:24;97945.56;;;3.83;81.43
86115;BME280;76768;49.464;10.882;2024-02-28T05:05:50;97946.34;;;3.80;81.64
86115;BME280;76768;49.464;10.882;2024-02-28T05:08:19;97954.22;;;3.85;81.07
86115;BME280;76768;49.464;10.882;2024-02-28T05:10:44;97939.28;;;3.82;81.52
86115;BME280;76768;49.464;10.882;2024-02-28T05:13:09;97939.72;;;3.88;80.80
86115;BME280;76768;49.464;10.882;2024-02-28T05:15:35;97944.03;;;3.89;81.49
86115;BME280;76768;49.464;10.882;2024-02-28T05:18:00;97943.97;;;3.82;82.26
86115;BME280;76768;49.464;10.882;2024-02-28T05:20:25;97941.59;;;3.77;81.74
86115;BME280;76768;49.464;10.882;2024-02-28T05:22:50;97943.91;;;3.75;82.58
86115;BME280;76768;49.464;10.882;2024-02-28T05:25:16;97957.66;;;3.75;82.63
86115;BME280;76768;49.464;10.882;2024-02-28T05:27:41;97952.16;;;3.75;82.41
86115;BME280;76768;49.464;10.882;2024-02-28T05:30:07;97943.53;;;3.72;82.54
86115;BME280;76768;49.464;10.882;2024-02-28T05:32:33;97952.16;;;3.75;82.93
86115;BME280;76768;49.464;10.882;2024-02-28T05:34:58;97956.88;;;3.74;82.22
86115;BME280;76768;49.464;10.882;2024-02-28T05:37:23;97969.47;;;3.79;82.76
86115;BME280;76768;49.464;10.882;2024-02-28T05:39:50;97961.63;;;3.77;81.72
86115;BME280;76768;49.464;10.882;2024-02-28T05:42:15;97967.53;;;3.83;81.57
86115;BME280;76768;49.464;10.882;2024-02-28T05:44:47;97961.66;;;3.81;82.09
86115;BME280;76768;49.464;10.882;2024-02-28T05:47:13;97973.06;;;3.86;81.73
86115;BME280;76768;49.464;10.882;2024-02-28T05:49:38;97967.53;;;3.83;82.24
86115;BME280;76768;49.464;10.882;2024-02-28T05:52:04;97979.38;;;3.90;81.53
86115;BME280;76768;49.464;10.882;2024-02-28T05:54:30;97978.56;;;3.86;81.99
86115;BME280;76768;49.464;10.882;2024-02-28T05:56:56;97968.31;;;3.80;82.02
86115;BME280;76768;49.464;10.882;2024-02-28T05:59:21;97967.09;;;3.73;82.37
86115;BME280;76768;49.464;10.882;2024-02-28T06:01:46;97969.44;;;3.71;83.00
86115;BME280;76768;49.464;10.882;2024-02-28T06:04:12;97967.84;;;3.70;83.15
86115;BME280;76768;49.464;10.882;2024-02-28T06:06:38;97974.91;;;3.68;83.15
86115;BME280;76768;49.464;10.882;2024-02-28T06:09:03;97983.19;;;3.71;83.18
86115;BME280;76768;49.464;10.882;2024-02-28T06:11:31;97978.44;;;3.68;83.27
86115;BME280;76768;49.464;10.882;2024-02-28T06:13:58;97983.56;;;3.73;83.18
86115;BME280;76768;49.464;10.882;2024-02-28T06:16:23;97985.09;;;3.67;83.14
86115;BME280;76768;49.464;10.882;2024-02-28T06:18:49;97997.75;;;3.76;83.28
86115;BME280;76768;49.464;10.882;2024-02-28T06:21:15;97998.88;;;3.75;82.73
86115;BME280;76768;49.464;10.882;2024-02-28T06:23:40;97998.06;;;3.70;82.57
86115;BME280;76768;49.464;10.882;2024-02-28T06:26:05;98009.16;;;3.81;82.64
86115;BME280;76768;49.464;10.882;2024-02-28T06:28:31;98012.31;;;3.83;82.33
86115;BME280;76768;49.464;10.882;2024-02-28T06:30:57;98024.50;;;3.86;82.28
86115;BME280;76768;49.464;10.882;2024-02-28T06:33:22;98023.34;;;3.87;81.67
86115;BME280;76768;49.464;10.882;2024-02-28T06:35:48;98037.47;;;3.85;82.93
86115;BME280;76768;49.464;10.882;2024-02-28T06:38:13;98036.72;;;3.88;81.87
86115;BME280;76768;49.464;10.882;2024-02-28T06:40:38;98028.09;;;3.90;81.35
86115;BME280;76768;49.464;10.882;2024-02-28T06:43:04;98028.50;;;3.92;82.19
86115;BME280;76768;49.464;10.882;2024-02-28T06:45:30;98034.41;;;3.94;81.16
86115;BME280;76768;49.464;10.882;2024-02-28T06:47:55;98039.16;;;3.97;82.02
86115;BME280;76768;49.464;10.882;2024-02-28T06:50:20;98024.94;;;3.88;82.30
86115;BME280;76768;49.464;10.882;2024-02-28T06:52:46;98042.66;;;3.94;82.55
86115;BME280;76768;49.464;10.882;2024-02-28T06:55:11;98054.06;;;3.96;82.07
86115;BME280;76768;49.464;10.882;2024-02-28T06:57:37;98047.78;;;3.99;81.81
86115;BME280;76768;49.464;10.882;2024-02-28T07:00:05;98049.78;;;4.02;81.95
86115;BME280;76768;49.464;10.882;2024-02-28T07:02:30;98035.13;;;3.87;82.18
86115;BME280;76768;49.464;10.882;2024-02-28T07:04:56;98040.25;;;3.89;81.65
86115;BME280;76768;49.464;10.882;2024-02-28T07:07:21;98054.09;;;4.03;81.06
86115;BME280;76768;49.464;10.882;2024-02-28T07:09:46;98072.22;;;4.08;81.63
86115;BME280;76768;49.464;10.882;2024-02-28T07:12:12;98054.94;;;4.07;81.11
86115;BME280;76768;49.464;10.882;2024-02-28T07:14:37;98072.66;;;4.13;81.05
86115;BME280;76768;49.464;10.882;2024-02-28T07:17:03;98079.75;;;4.14;80.73
86115;BME280;76768;49.464;10.882;2024-02-28T07:19:28;98081.34;;;4.19;81.16
86115;BME280;76768;49.464;10.882;2024-02-28T07:21:53;98090.81;;;4.21;80.55
86115;BME280;76768;49.464;10.882;2024-02-28T07:24:18;98085.66;;;4.20;80.84
86115;BME280;76768;49.464;10.882;2024-02-28T07:26:45;98089.63;;;4.22;80.60
86115;BME280;76768;49.464;10.882;2024-02-28T07:29:11;98090.25;;;4.02;81.66
86115;BME280;76768;49.464;10.882;2024-02-28T07:31:36;98094.88;;;3.94;82.55
86115;BME280;76768;49.464;10.882;2024-02-28T07:34:01;98096.50;;;3.98;81.31
86115;BME280;76768;49.464;10.882;2024-02-28T07:36:26;98094.22;;;4.04;81.13
86115;BME280;76768;49.464;10.882;2024-02-28T07:38:52;98092.66;;;4.10;81.38
86115;BME280;76768;49.464;10.882;2024-02-28T07:41:18;98105.75;;;4.20;80.95
86115;BME280;76768;49.464;10.882;2024-02-28T07:43:43;98114.41;;;4.26;80.72
86115;BME280;76768;49.464;10.882;2024-02-28T07:46:09;98109.31;;;4.25;80.73
86115;BME280;76768;49.464;10.882;2024-02-28T07:48:36;98102.22;;;4.23;80.63
86115;BME280;76768;49.464;10.882;2024-02-28T07:51:04;98113.28;;;4.31;80.18
86115;BME280;76768;49.464;10.882;2024-02-28T07:53:30;98111.69;;;4.30;80.03
86115;BME280;76768;49.464;10.882;2024-02-28T07:55:55;98119.53;;;4.28;79.70
86115;BME280;76768;49.464;10.882;2024-02-28T07:58:21;98120.31;;;4.25;80.09
86115;BME280;76768;49.464;10.882;2024-02-28T08:00:46;98120.25;;;4.17;80.48
86115;BME280;76768;49.464;10.882;2024-02-28T08:03:11;98121.81;;;4.18;80.15
86115;BME280;76768;49.464;10.882;2024-02-28T08:05:37;98127.75;;;4.20;80.18
86115;BME280;76768;49.464;10.882;2024-02-28T08:08:07;98129.72;;;4.23;80.25
86115;BME280;76768;49.464;10.882;2024-02-28T08:10:32;98125.44;;;4.26;79.66
86115;BME280;76768;49.464;10.882;2024-02-28T08:12:58;98131.72;;;4.27;79.45
86115;BME280;76768;49.464;10.882;2024-02-28T08:15:23;98133.25;;;4.20;79.62
86115;BME280;76768;49.464;10.882;2024-02-28T08:17:49;98139.97;;;4.27;79.65
86115;BME280;76768;49.464;10.882;2024-02-28T08:20:14;98140.38;;;4.29;79.81
86115;BME280;76768;49.464;10.882;2024-02-28T08:22:39;98150.28;;;4.37;79.23
86115;BME280;76768;49.464;10.882;2024-02-28T08:25:05;98150.28;;;4.40;79.00
86115;BME280;76768;49.464;10.882;2024-02-28T08:27:30;98147.19;;;4.42;79.31
86115;BME280;76768;49.464;10.882;2024-02-28T08:29:56;98158.16;;;4.38;78.50
86115;BME280;76768;49.464;10.882;2024-02-28T08:32:21;98159.66;;;4.29;79.28
86115;BME280;76768;49.464;10.882;2024-02-28T08:34:46;98159.94;;;4.20;80.14
86115;BME280;76768;49.464;10.882;2024-02-28T08:37:12;98158.31;;;4.15;79.30
86115;BME280;76768;49.464;10.882;2024-02-28T08:39:38;98157.22;;;4.23;79.55
86115;BME280;76768;49.464;10.882;2024-02-28T08:42:03;98160.03;;;4.31;78.95
86115;BME280;76768;49.464;10.882;2024-02-28T08:44:28;98169.13;;;4.35;79.19
86115;BME280;76768;49.464;10.882;2024-02-28T08:46:54;98174.63;;;4.35;78.93
86115;BME280;76768;49.464;10.882;2024-02-28T08:49:19;98174.53;;;4.28;79.49
86115;BME280;76768;49.464;10.882;2024-02-28T08:51:44;98183.22;;;4.30;78.64
86115;BME280;76768;49.464;10.882;2024-02-28T08:54:10;98186.34;;;4.28;79.44
86115;BME280;76768;49.464;10.882;2024-02-28T08:56:35;98185.97;;;4.30;79.04
86115;BME280;76768;49.464;10.882;2024-02-28T08:59:00;98185.50;;;4.20;80.28
86115;BME280;76768;49.464;10.882;2024-02-28T09:01:25;98179.19;;;4.20;79.48
86115;BME280;76768;49.464;10.882;2024-02-28T09:03:51;98182.38;;;4.22;79.64
86115;BME280;76768;49.464;10.882;2024-02-28T09:06:16;98184.72;;;4.23;79.42
86115;BME280;76768;49.464;10.882;2024-02-28T09:08:42;98177.72;;;4.30;79.42
86115;BME280;76768;49.464;10.882;2024-02-28T09:11:08;98191.53;;;4.33;79.57
86115;BME280;76768;49.464;10.882;2024-02-28T09:13:33;98194.31;;;4.40;79.02
86115;BME280;76768;49.464;10.882;2024-02-28T09:16:01;98184.13;;;4.44;78.99
86115;BME280;76768;49.464;10.882;2024-02-28T09:18:26;98196.41;;;4.54;78.67
86115;BME280;76768;49.464;10.882;2024-02-28T09:20:51;98200.00;;;4.58;78.79
86115;BME280;76768;49.464;10.882;2024-02-28T09:23:18;98192.56;;;4.62;78.44
86115;BME280;76768;49.464;10.882;2024-02-28T09:25:43;98185.16;;;4.70;78.48
86115;BME280;76768;49.464;10.882;2024-02-28T09:28:08;98180.44;;;4.70;78.47
86115;BME280;76768;49.464;10.882;2024-02-28T09:30:37;98185.97;;;4.74;77.96
86115;BME280;76768;49.464;10.882;2024-02-28T09:33:03;98187.50;;;4.71;77.98
86115;BME280;76768;49.464;10.882;2024-02-28T09:35:28;98189.91;;;4.77;77.99
86115;BME280;76768;49.464;10.882;2024-02-28T09:37:53;98181.66;;;4.77;77.76
86115;BME280;76768;49.464;10.882;2024-02-28T09:40:19;98186.78;;;4.78;77.97
86115;BME280;76768;49.464;10.882;2024-02-28T09:42:50;98181.25;;;4.75;78.17
86115;BME280;76768;49.464;10.882;2024-02-28T09:45:18;98186.81;;;4.82;77.79
86115;BME280;76768;49.464;10.882;2024-02-28T09:47:44;98190.72;;;4.81;78.10
86115;BME280;76768;49.464;10.882;2024-02-28T09:50:11;98188.38;;;4.83;77.73
86115;BME280;76768;49.464;10.882;2024-02-28T09:52:36;98193.13;;;4.86;77.64
86115;BME280;76768;49.464;10.882;2024-02-28T09:55:02;98191.53;;;4.85;77.79
86115;BME280;76768;49.464;10.882;2024-02-28T09:57:27;98193.97;;;4.90;78.30
86115;BME280;76768;49.464;10.882;2024-02-28T09:59:57;98190.06;;;4.94;78.03
86115;BME280;76768;49.464;10.882;2024-02-28T10:02:25;98191.69;;;5.03;77.65
86115;BME280;76768;49.464;10.882;2024-02-28T10:04:52;98187.34;;;5.05;77.82
86115;BME280;76768;49.464;10.882;2024-02-28T10:07:17;98201.59;;;5.14;77.17
86115;BME280;76768;49.464;10.882;2024-02-28T10:09:43;98206.72;;;5.16;77.23
86115;BME280;76768;49.464;10.882;2024-02-28T10:12:09;98207.13;;;5.21;76.90
86115;BME280;76768;49.464;10.882;2024-02-28T10:14:34;98201.25;;;5.23;77.69
86115;BME280;76768;49.464;10.882;2024-02-28T10:17:00;98202.09;;;5.31;77.14
86115;BME280;76768;49.464;10.882;2024-02-28T10:19:25;98203.28;;;5.37;77.27
86115;BME280;76768;49.464;10.882;2024-02-28T10:21:51;98203.72;;;5.46;76.35
86115;BME280;76768;49.464;10.882;2024-02-28T10:24:16;98212.41;;;5.48;75.40
86115;BME280;76768;49.464;10.882;2024-02-28T10:26:46;98208.47;;;5.49;75.97
86115;BME280;76768;49.464;10.882;2024-02-28T10:29:21;98212.00;;;5.50;75.89
86115;BME280;76768;49.464;10.882;2024-02-28T10:31:46;98215.59;;;5.57;76.18
86115;BME280;76768;49.464;10.882;2024-02-28T10:34:12;98207.72;;;5.63;75.73
86115;BME280;76768;49.464;10.882;2024-02-28T10:36:41;98216.44;;;5.68;75.09
86115;BME280;76768;49.464;10.882;2024-02-28T10:39:08;98218.81;;;5.74;74.89
86115;BME280;76768;49.464;10.882;2024-02-28T10:41:37;98225.09;;;5.70;75.13
86115;BME280;76768;49.464;10.882;2024-02-28T10:44:03;98224.72;;;5.68;74.56
86115;BME280;76768;49.464;10.882;2024-02-28T10:46:29;98239.31;;;5.72;74.81
86115;BME280;76768;49.464;10.882;2024-02-28T10:48:54;98221.97;;;5.68;74.97
86115;BME280;76768;49.464;10.882;2024-02-28T10:51:24;98232.13;;;5.57;74.91
86115;BME280;76768;49.464;10.882;2024-02-28T10:54:09;98232.09;;;5.50;75.44
86115;BME280;76768;49.464;10.882;2024-02-28T10:56:36;98227.31;;;5.40;75.46
86115;BME280;76768;49.464;10.882;2024-02-28T10:59:02;98235.16;;;5.38;76.11
86115;BME280;76768;49.464;10.882;2024-02-28T11:01:29;98234.34;;;5.30;75.61
86115;BME280;76768;49.464;10.882;2024-02-28T11:03:55;98232.06;;;5.39;76.00
86115;BME280;76768;49.464;10.882;2024-02-28T11:06:22;98238.38;;;5.43;75.56
86115;BME280;76768;49.464;10.882;2024-02-28T11:08:48;98234.03;;;5.39;75.63
86115;BME280;76768;49.464;10.882;2024-02-28T11:11:14;98232.06;;;5.39;75.88
86115;BME280;76768;49.464;10.882;2024-02-28T11:13:51;98243.91;;;5.51;75.41
86115;BME280;76768;49.464;10.882;2024-02-28T11:16:17;98243.94;;;5.54;75.17
86115;BME280;76768;49.464;10.882;2024-02-28T11:18:50;98241.63;;;5.63;74.96
86115;BME280;76768;49.464;10.882;2024-02-28T11:21:16;98247.19;;;5.74;74.92
86115;BME280;76768;49.464;10.882;2024-02-28T11:23:45;98243.72;;;5.88;74.52
86115;BME280;76768;49.464;10.882;2024-02-28T11:26:12;98242.59;;;6.03;73.42
86115;BME280;76768;49.464;10.882;2024-02-28T11:28:38;98233.16;;;6.11;73.90
86115;BME280;76768;49.464;10.882;2024-02-28T11:31:03;98248.22;;;6.25;73.79
86115;BME280;76768;49.464;10.882;2024-02-28T11:33:29;98244.63;;;6.24;72.89
86115;BME280;76768;49.464;10.882;2024-02-28T11:35:56;98241.09;;;6.24;73.59
86115;BME280;76768;49.464;10.882;2024-02-28T11:38:24;98247.44;;;6.38;73.37
86115;BME280;76768;49.464;10.882;2024-02-28T11:40:49;98243.47;;;6.32;72.56
86115;BME280;76768;49.464;10.882;2024-02-28T11:43:15;98243.47;;;6.36;72.92
86115;BME280;76768;49.464;10.882;2024-02-28T11:45:40;98245.06;;;6.44;72.63
86115;BME280;76768;49.464;10.882;2024-02-28T11:48:07;98245.06;;;6.44;73.06
86115;BME280;76768;49.464;10.882;2024-02-28T11:50:32;98245.88;;;6.48;73.04
86115;BME280;76768;49.464;10.882;2024-02-28T11:52:57;98253.00;;;6.56;72.16
86115;BME280;76768;49.464;10.882;2024-02-28T11:55:25;98237.22;;;6.53;71.62
86115;BME280;76768;49.464;10.882;2024-02-28T11:57:50;98245.09;;;6.37;71.63
86115;BME280;76768;49.464;10.882;2024-02-28T12:00:16;98258.09;;;6.47;71.44
86115;BME280;76768;49.464;10.882;2024-02-28T12:02:41;98243.13;;;6.41;71.13
86115;BME280;76768;49.464;10.882;2024-02-28T12:05:07;98257.72;;;6.52;72.16
86115;BME280;76768;49.464;10.882;2024-02-28T12:07:32;98256.16;;;6.58;71.67
86115;BME280;76768;49.464;10.882;2024-02-28T12:10:00;98253.78;;;6.60;71.81
86115;BME280;76768;49.464;10.882;2024-02-28T12:12:27;98257.72;;;6.59;71.30
86115;BME280;76768;49.464;10.882;2024-02-28T12:14:52;98258.50;;;6.56;71.41
86115;BME280;76768;49.464;10.882;2024-02-28T12:17:17;98253.00;;;6.63;71.57
86115;BME280;76768;49.464;10.882;2024-02-28T12:19:43;98246.69;;;6.59;71.12
86115;BME280;76768;49.464;10.882;2024-02-28T12:22:10;98246.72;;;6.66;70.70
86115;BME280;76768;49.464;10.882;2024-02-28T12:24:36;98250.63;;;6.51;70.65
86115;BME280;76768;49.464;10.882;2024-02-28T12:27:01;98241.13;;;6.38;70.76
86115;BME280;76768;49.464;10.882;2024-02-28T12:29:26;98248.25;;;6.46;70.75
86115;BME280;76768;49.464;10.882;2024-02-28T12:31:51;98239.56;;;6.51;71.14
86115;BME280;76768;49.464;10.882;2024-02-28T12:34:17;98244.31;;;6.54;71.28
86115;BME280;76768;49.464;10.882;2024-02-28T12:36:42;98227.75;;;6.58;71.22
86115;BME280;76768;49.464;10.882;2024-02-28T12:39:08;98232.09;;;6.62;71.00
86115;BME280;76768;49.464;10.882;2024-02-28T12:41:37;98243.56;;;6.79;70.40
86115;BME280;76768;49.464;10.882;2024-02-28T12:44:03;98241.97;;;6.85;69.73
86115;BME280;76768;49.464;10.882;2024-02-28T12:46:29;98241.97;;;6.85;69.01
86115;BME280;76768;49.464;10.882;2024-02-28T12:48:54;98223.81;;;6.84;70.19
86115;BME280;76768;49.464;10.882;2024-02-28T12:51:44;98243.56;;;6.97;68.58
86115;BME280;76768;49.464;10.882;2024-02-28T12:54:14;98242.75;;;6.89;69.08